Overview Statistics Trail Chart Weather Telemetry Raw packets
 

This is the latest recevied weather packets stored in our database for station/object KJ6HT. If no packets are shown the sender has not sent any weather packets the latest 10 day(s).

<< 33 34 35 36 >>
Time Temp. Humidity Pressure Rain* Wind** Luminosity Snow
1787843768 27.78° C 63% 1010.3 hPa 0 mm - - -
1787842821 27.78° C 63% 1010.2 hPa 0 mm - - -
1787841979 26.67° C 66% 1009.9 hPa 0 mm - - -
1787841035 26.11° C 66% 1009.8 hPa 0 mm - - -
1787840192 26.11° C 66% 1009.3 hPa 0 mm - - -
1787839275 26.11° C 64% 1009.2 hPa 0 mm - - -
1787838339 26.11° C 66% 1009.2 hPa 0 mm - - -
1787837404 26.11° C 64% 1009.2 hPa 0 mm - - -
1787836563 26.67° C 60% 1009 hPa 0 mm - - -
1787835613 25.56° C 64% 1009 hPa 0 mm - - -
1787834769 26.11° C 63% 1008.8 hPa 0 mm - - -
1787833813 26.11° C 61% 1008.7 hPa 0 mm - - -
1787832977 27.22° C 57% 1008.7 hPa 0 mm - - -
1787831163 27.78° C 57% 1008.6 hPa 0 mm - - -
1787830222 27.78° C 58% 1008.7 hPa 0 mm - - -
1787829377 27.78° C 57% 1008.6 hPa 0 mm - - -
1787828452 29.44° C 52% 1008.4 hPa 0 mm - - -
1787827511 28.33° C 55% 1008.3 hPa 0 mm - - -
1787826663 27.78° C 59% 1008 hPa 0 mm - - -
1787825727 29.44° C 53% 1008.1 hPa 0 mm - - -
1787824878 27.78° C 58% 1008.1 hPa 0 mm - - -
1787823968 27.78° C 57% 1008.1 hPa 0 mm - - -
1787823011 27.78° C 56% 1008.2 hPa 0 mm - - -

* Rain latest hour (hover to see other rain measurements)
** Current wind speed in m/s (hover to see current wind gust speed)